Time;durP1;ratioP1;P1;durP2;ratioP2;P2;SDS_P1;SDS_P2;PMS_P1;PMS_P2;Temp;Humidity;BMP_temperature;BMP_pressure;BME280_temperature;BME280_humidity;BME280_pressure;Samples;Min_cycle;Max_cycle;Signal;HPM_P1;HPM_P2
2022/07/09 00:01:51;;;;;;;3.37;0.55;;;;;;;18.76;68.67;100261.96;1746398;81;20147;-78
2022/07/09 00:04:17;;;;;;;0.72;0.50;;;;;;;18.76;68.61;100257.07;1744979;81;21049;-79
2022/07/09 00:06:43;;;;;;;2.10;0.45;;;;;;;18.76;68.55;100255.21;1746857;81;22138;-78
2022/07/09 00:09:09;;;;;;;1.47;0.50;;;;;;;18.76;68.70;100247.11;1746384;81;20978;-79
2022/07/09 00:11:36;;;;;;;1.32;0.65;;;;;;;18.75;68.88;100245.46;1739350;82;21041;-78
2022/07/09 00:14:03;;;;;;;1.20;0.47;;;;;;;18.75;68.84;100234.66;1745934;82;21016;-77
2022/07/09 00:16:29;;;;;;;0.50;0.45;;;;;;;18.82;68.80;100242.64;1745621;82;21005;-77
2022/07/09 00:18:56;;;;;;;1.67;0.95;;;;;;;18.86;68.71;100237.84;1738512;81;20986;-78
2022/07/09 00:21:22;;;;;;;1.10;0.60;;;;;;;18.88;68.67;100242.20;1747399;81;21009;-77
2022/07/09 00:23:49;;;;;;;1.65;0.30;;;;;;;18.88;68.72;100240.84;1739913;82;21056;-78
2022/07/09 00:26:15;;;;;;;;;;;;;;;18.86;68.73;100246.48;1748746;82;21020;-78
2022/07/09 00:28:44;;;;;;;1.45;0.33;;;;;;;18.85;68.83;100244.33;1740091;82;20499;-79
2022/07/09 00:31:10;;;;;;;0.95;0.40;;;;;;;18.82;69.08;100248.05;1720912;82;21033;-78
2022/07/09 00:33:37;;;;;;;2.50;0.68;;;;;;;18.75;69.07;100230.61;1744829;82;20996;-77
2022/07/09 00:36:03;;;;;;;;;;;;;;;18.82;69.19;100238.05;1740933;81;22122;-78
2022/07/09 00:38:29;;;;;;;0.82;0.40;;;;;;;18.82;69.28;100227.25;1746780;81;20140;-77
2022/07/09 00:40:56;;;;;;;0.90;0.40;;;;;;;18.76;69.41;100220.11;1746067;81;20969;-78
2022/07/09 00:43:22;;;;;;;;;;;;;;;18.73;69.75;100217.89;1742470;81;20973;-78
2022/07/09 00:45:49;;;;;;;0.82;0.60;;;;;;;18.73;69.81;100223.29;1741515;82;20256;-79
2022/07/09 00:48:16;;;;;;;1.05;0.55;;;;;;;18.69;69.97;100223.50;1745059;82;21001;-77
2022/07/09 00:50:43;;;;;;;0.60;0.30;;;;;;;18.71;69.81;100228.13;1745373;82;21044;-78
2022/07/09 00:53:14;;;;;;;2.45;0.50;;;;;;;18.70;69.98;100222.96;1742237;82;21065;-78
2022/07/09 00:55:40;;;;;;;1.45;0.50;;;;;;;18.68;70.21;100221.34;1745415;81;20969;-78
2022/07/09 00:58:09;;;;;;;0.35;0.35;;;;;;;18.73;69.94;100217.89;1739907;82;21020;-77
2022/07/09 01:00:36;;;;;;;1.40;0.80;;;;;;;18.75;69.78;100213.06;1745571;82;20953;-78
2022/07/09 01:03:02;;;;;;;1.50;0.37;;;;;;;18.80;69.65;100214.53;1747096;82;20989;-78
2022/07/09 01:05:35;;;;;;;1.62;0.60;;;;;;;18.83;69.70;100221.31;1746250;82;21002;-78
2022/07/09 01:07:57;;;;;;;0.60;0.55;;;;;;;18.88;69.51;100225.45;1737722;81;21438;-77
2022/07/09 01:10:23;;;;;;;;;;;;;;;18.88;69.35;100222.75;1742795;82;20945;-78
2022/07/09 01:12:50;;;;;;;2.77;0.70;;;;;;;18.86;69.31;100226.23;1747271;81;20180;-77
2022/07/09 01:15:16;;;;;;;1.25;0.75;;;;;;;18.80;69.36;100230.73;1745552;81;21001;-78
2022/07/09 01:17:43;;;;;;;0.65;0.65;;;;;;;18.81;69.13;100230.19;1742749;81;21086;-78
2022/07/09 01:20:09;;;;;;;1.17;0.53;;;;;;;18.85;68.96;100230.83;1746900;81;21029;-78
2022/07/09 01:22:37;;;;;;;1.80;0.53;;;;;;;18.94;68.63;100228.52;1744846;81;21540;-78
2022/07/09 01:25:09;;;;;;;0.60;0.50;;;;;;;19.07;68.15;100217.91;1741473;82;21081;-77
2022/07/09 01:27:36;;;;;;;2.92;0.50;;;;;;;19.16;67.54;100213.72;1739839;82;21112;-77
2022/07/09 01:30:05;;;;;;;0.40;0.40;;;;;;;19.20;67.32;100219.45;1738859;81;21014;-78
2022/07/09 01:32:31;;;;;;;2.00;0.47;;;;;;;19.24;66.76;100218.69;1738562;82;21041;-78
2022/07/09 01:34:57;;;;;;;0.88;0.30;;;;;;;19.21;66.60;100225.12;1746439;82;21533;-78
2022/07/09 01:37:23;;;;;;;;;;;;;;;19.12;66.99;100219.34;1748750;81;20989;-75
2022/07/09 01:39:52;;;;;;;0.60;0.50;;;;;;;19.10;67.04;100213.37;1738711;81;20118;-78
2022/07/09 01:42:20;;;;;;;0.80;0.60;;;;;;;19.05;66.89;100225.44;1744297;81;20982;-78
2022/07/09 01:44:50;;;;;;;0.85;0.57;;;;;;;19.01;67.19;100221.61;1743949;81;21542;-77
2022/07/09 01:47:16;;;;;;;1.02;0.70;;;;;;;19.01;67.28;100212.96;1745939;81;21060;-78
2022/07/09 01:49:43;;;;;;;1.50;0.47;;;;;;;19.03;67.33;100216.23;1746692;81;21062;-77
2022/07/09 01:52:09;;;;;;;0.78;0.70;;;;;;;19.03;67.35;100218.12;1747165;81;20950;-77
2022/07/09 01:54:36;;;;;;;0.78;0.30;;;;;;;19.02;67.39;100208.37;1744963;81;21057;-76
2022/07/09 01:57:03;;;;;;;0.85;0.40;;;;;;;19.01;67.28;100200.80;1737592;81;20989;-77
2022/07/09 01:59:29;;;;;;;0.98;0.30;;;;;;;18.98;67.32;100197.78;1745018;82;20970;-77
2022/07/09 02:01:55;;;;;;;;;;;;;;;18.98;67.22;100197.78;1747704;81;20989;-78
2022/07/09 02:04:21;;;;;;;1.57;0.60;;;;;;;19.03;67.05;100195.16;1738106;81;20143;-78
2022/07/09 02:06:48;;;;;;;3.00;0.60;;;;;;;19.00;66.93;100188.89;1746461;81;21013;-78
2022/07/09 02:09:14;;;;;;;1.82;0.68;;;;;;;19.04;66.35;100188.67;1746550;81;21018;-78
2022/07/09 02:11:42;;;;;;;0.80;0.30;;;;;;;19.11;66.22;100197.97;1743570;82;20926;-77
2022/07/09 02:14:08;;;;;;;1.05;0.62;;;;;;;19.14;65.92;100204.24;1746009;82;20989;-78
2022/07/09 02:16:35;;;;;;;0.53;0.40;;;;;;;19.10;65.87;100212.53;1735084;81;21112;-78
2022/07/09 02:19:02;;;;;;;1.75;0.72;;;;;;;19.06;65.92;100217.61;1746713;82;20993;-78
2022/07/09 02:21:29;;;;;;;8.00;0.75;;;;;;;19.03;66.09;100218.93;1746506;82;21053;-78
2022/07/09 02:23:58;;;;;;;;;;;;;;;19.03;65.98;100228.92;1739568;82;20959;-78
2022/07/09 02:26:22;;;;;;;1.07;0.55;;;;;;;19.02;66.12;100238.92;1745116;82;20106;-79
2022/07/09 02:28:48;;;;;;;2.75;0.30;;;;;;;18.97;66.29;100244.77;1745513;81;21037;-78
2022/07/09 02:31:14;;;;;;;0.40;0.40;;;;;;;19.01;65.93;100252.12;1746521;81;20914;-77
2022/07/09 02:33:42;;;;;;;1.20;1.10;;;;;;;19.04;65.65;100266.50;1738593;82;21477;-76
2022/07/09 02:36:09;;;;;;;0.40;0.40;;;;;;;19.09;66.17;100288.71;1746430;81;20981;-76
2022/07/09 02:38:35;;;;;;;1.10;0.42;;;;;;;19.21;65.77;100298.07;1746755;81;20985;-76
2022/07/09 02:41:01;;;;;;;2.98;0.30;;;;;;;19.22;65.86;100314.05;1746098;82;21093;-77
2022/07/09 02:43:27;;;;;;;;;;;;;;;19.18;65.38;100315.61;1748909;82;20977;-77
2022/07/09 02:45:55;;;;;;;0.20;0.20;;;;;;;19.18;65.50;100312.09;1744941;82;21034;-77
2022/07/09 02:48:25;;;;;;;0.50;0.50;;;;;;;19.19;66.00;100309.66;1744134;82;20982;-77
2022/07/09 02:50:52;;;;;;;2.27;0.40;;;;;;;19.30;65.87;100297.95;1741091;82;21077;-77
2022/07/09 02:53:19;;;;;;;3.20;0.50;;;;;;;19.44;65.27;100303.30;1745886;81;20946;-77
2022/07/09 02:55:45;;;;;;;0.30;0.30;;;;;;;19.51;64.88;100305.82;1744992;81;21486;-78
2022/07/09 02:58:12;;;;;;;0.55;0.33;;;;;;;19.52;64.98;100307.47;1740282;81;21096;-76
2022/07/09 03:00:40;;;;;;;1.57;0.42;;;;;;;19.48;64.87;100309.55;1739724;81;20976;-77
2022/07/09 03:03:07;;;;;;;1.02;0.50;;;;;;;19.37;64.79;100316.17;1746381;81;20978;-77
2022/07/09 03:05:34;;;;;;;1.77;0.50;;;;;;;19.31;65.26;100321.73;1742219;82;20994;-77
2022/07/09 03:08:02;;;;;;;0.60;0.60;;;;;;;19.29;65.45;100327.91;1744136;81;20990;-77
2022/07/09 03:10:29;;;;;;;1.42;0.60;;;;;;;19.25;65.74;100340.59;1744367;81;21008;-77
2022/07/09 03:12:56;;;;;;;3.90;0.50;;;;;;;19.23;65.70;100341.87;1742607;81;21273;-78
2022/07/09 03:15:23;;;;;;;;;;;;;;;19.23;65.90;100339.17;1748848;81;21006;-77
2022/07/09 03:17:49;;;;;;;1.22;0.62;;;;;;;19.21;65.90;100339.44;1743258;81;20135;-78
2022/07/09 03:20:16;;;;;;;0.72;0.57;;;;;;;19.10;66.23;100336.28;1746208;81;20993;-78
2022/07/09 03:22:43;;;;;;;0.60;0.57;;;;;;;19.09;66.79;100337.88;1745324;81;21457;-77
2022/07/09 03:25:10;;;;;;;1.12;0.60;;;;;;;19.06;67.23;100349.46;1746775;82;20961;-77
2022/07/09 03:27:36;;;;;;;1.17;0.60;;;;;;;19.05;67.24;100356.45;1746700;82;21530;-78
2022/07/09 03:30:04;;;;;;;0.85;0.85;;;;;;;19.05;67.50;100366.72;1740905;82;21531;-78
2022/07/09 03:32:31;;;;;;;1.75;0.62;;;;;;;19.05;67.73;100366.72;1736731;82;21080;-79
2022/07/09 03:34:57;;;;;;;0.70;0.70;;;;;;;19.03;67.90;100368.03;1745976;81;20954;-77
2022/07/09 03:37:23;;;;;;;;;;;;;;;19.02;67.97;100365.03;1745871;82;21083;-79
2022/07/09 03:39:49;;;;;;;0.85;0.72;;;;;;;19.00;67.77;100361.22;1746634;81;20458;-78
2022/07/09 03:42:15;;;;;;;;;;;;;;;18.97;67.98;100363.62;1748034;81;20950;-79
2022/07/09 03:44:41;;;;;;;1.00;0.40;;;;;;;19.00;67.99;100353.66;1744627;81;20426;-78
2022/07/09 03:47:08;;;;;;;1.20;0.60;;;;;;;19.01;67.78;100349.36;1729192;82;21068;-79
2022/07/09 03:49:34;;;;;;;1.02;0.70;;;;;;;19.05;67.26;100350.52;1743395;81;21013;-78
2022/07/09 03:52:00;;;;;;;0.75;0.75;;;;;;;19.09;67.67;100348.69;1745045;82;21690;-78
2022/07/09 03:54:26;;;;;;;;;;;;;;;19.11;68.03;100346.02;1748564;82;21049;-79
2022/07/09 03:56:52;;;;;;;0.88;0.85;;;;;;;19.14;67.98;100351.48;1745360;81;20144;-78
2022/07/09 03:59:19;;;;;;;1.37;0.53;;;;;;;19.10;68.06;100347.60;1746015;81;21572;-78
2022/07/09 04:01:45;;;;;;;;;;;;;;;19.16;68.23;100348.81;1748193;81;21652;-78
2022/07/09 04:04:11;;;;;;;1.85;0.70;;;;;;;19.26;68.34;100341.39;1741924;82;20165;-77
2022/07/09 04:06:37;;;;;;;4.78;1.10;;;;;;;19.26;68.80;100356.26;1743979;81;21052;-77
2022/07/09 04:10:43;;;;;;;2.08;1.25;;;;;;;19.26;69.38;100344.91;1794055;78;22202;-77
2022/07/09 04:13:09;;;;;;;1.92;1.17;;;;;;;19.23;69.46;100362.14;1732382;79;21014;-80
2022/07/09 04:15:35;;;;;;;;;;;;;;;19.20;69.58;100363.46;1712004;82;21052;-78
2022/07/09 04:18:02;;;;;;;1.27;0.70;;;;;;;19.23;69.65;100364.84;1718638;82;20128;-76
2022/07/09 04:20:28;;;;;;;2.72;0.88;;;;;;;19.28;69.56;100369.53;1694162;84;21037;-75
2022/07/09 04:22:55;;;;;;;4.58;0.60;;;;;;;19.48;69.32;100364.97;1673010;83;21155;-77
2022/07/09 04:25:21;;;;;;;1.40;1.40;;;;;;;19.67;68.73;100369.60;1687784;83;21164;-77
2022/07/09 04:27:48;;;;;;;3.50;1.40;;;;;;;19.85;68.19;100370.69;1665426;84;22265;-76
2022/07/09 04:30:15;;;;;;;1.65;1.50;;;;;;;19.93;67.54;100368.92;1682000;84;21162;-76
2022/07/09 04:32:42;;;;;;;1.22;1.10;;;;;;;19.94;67.35;100369.73;1656371;85;21088;-76
2022/07/09 04:35:09;;;;;;;4.87;1.40;;;;;;;19.92;67.56;100364.56;1670738;84;21113;-77
2022/07/09 04:37:35;;;;;;;3.05;1.40;;;;;;;19.91;68.25;100369.71;1705221;83;21533;-76
2022/07/09 04:40:01;;;;;;;;;;;;;;;19.90;68.58;100369.41;1704219;83;21049;-76
2022/07/09 04:42:28;;;;;;;1.15;1.12;;;;;;;19.88;68.35;100366.14;1703596;83;20124;-76
2022/07/09 04:44:54;;;;;;;;;;;;;;;19.70;68.62;100356.92;1707674;83;21568;-78
2022/07/09 04:47:20;;;;;;;1.27;1.07;;;;;;;19.56;69.22;100352.41;1704197;83;20121;-77
2022/07/09 04:49:46;;;;;;;;;;;;;;;19.44;69.99;100338.98;1705201;83;21053;-77
2022/07/09 04:52:16;;;;;;;2.10;1.97;;;;;;;19.49;70.95;100332.28;1703682;83;20167;-79
2022/07/09 04:54:41;;;;;;;1.87;1.40;;;;;;;19.37;71.88;100332.92;1703085;83;21072;-80
2022/07/09 04:57:08;;;;;;;2.87;1.60;;;;;;;19.24;71.80;100328.13;1680035;83;21093;-83
2022/07/09 04:59:34;;;;;;;4.42;1.12;;;;;;;19.18;72.19;100322.91;1644661;85;21626;-82
2022/07/09 05:02:00;;;;;;;;;;;;;;;19.14;73.40;100318.52;1663942;84;21180;-81
2022/07/09 05:04:26;;;;;;;2.00;1.70;;;;;;;19.17;74.21;100311.25;1648527;85;20171;-83
2022/07/09 05:06:52;;;;;;;;;;;;;;;19.16;74.66;100309.63;1658121;85;21030;-78
2022/07/09 05:09:20;;;;;;;2.95;2.47;;;;;;;19.08;74.43;100297.05;1660027;85;20193;-78
2022/07/09 05:11:46;;;;;;;;;;;;;;;18.93;75.64;100302.52;1661928;85;21007;-79
2022/07/09 05:14:14;;;;;;;4.45;2.58;;;;;;;18.82;75.76;100302.86;1660736;85;20160;-76
2022/07/09 05:16:44;;;;;;;2.20;2.00;;;;;;;18.65;75.91;100303.34;1656751;85;21040;-77
2022/07/09 05:19:08;;;;;;;2.35;2.15;;;;;;;18.56;76.46;100292.11;1656030;85;21079;-71
2022/07/09 05:21:34;;;;;;;3.80;2.85;;;;;;;18.45;77.80;100284.34;1656099;85;21050;-75
2022/07/09 05:24:01;;;;;;;3.15;2.58;;;;;;;18.26;79.04;100266.19;1657150;84;21075;-70
2022/07/09 05:26:29;;;;;;;3.35;2.92;;;;;;;18.09;79.77;100259.93;1658630;85;21054;-74
2022/07/09 05:28:56;;;;;;;4.72;2.65;;;;;;;17.92;81.13;100257.70;1661762;85;21480;-73
2022/07/09 05:31:22;;;;;;;;;;;;;;;17.74;82.41;100250.02;1663676;85;21011;-74
2022/07/09 05:33:48;;;;;;;2.70;2.50;;;;;;;17.59;84.00;100247.81;1660197;85;20253;-72
2022/07/09 05:36:14;;;;;;;;;;;;;;;17.41;86.67;100241.24;1661122;85;21054;-72
2022/07/09 05:38:40;;;;;;;3.12;2.83;;;;;;;17.26;87.41;100241.18;1658745;85;20142;-73
2022/07/09 05:41:07;;;;;;;2.72;2.58;;;;;;;17.14;89.06;100228.26;1659400;85;21072;-73
2022/07/09 05:43:33;;;;;;;3.47;3.08;;;;;;;17.06;90.81;100236.13;1658695;85;21521;-72
2022/07/09 05:45:59;;;;;;;3.40;3.05;;;;;;;17.06;90.81;100236.13;1656064;83;20989;-65
2022/07/09 05:48:26;;;;;;;2.72;2.62;;;;;;;17.03;91.67;100242.00;1686928;83;21574;-66
2022/07/09 05:50:52;;;;;;;2.60;2.40;;;;;;;17.00;91.90;100242.46;1684526;84;21018;-66
2022/07/09 05:53:18;;;;;;;2.67;2.47;;;;;;;17.01;91.82;100232.00;1669011;84;21119;-72
2022/07/09 05:55:46;;;;;;;7.45;3.37;;;;;;;17.02;92.29;100229.58;1686179;83;21486;-74
2022/07/09 05:58:13;;;;;;;3.02;2.83;;;;;;;17.05;91.37;100227.78;1686958;84;21060;-71
2022/07/09 06:00:39;;;;;;;3.33;2.98;;;;;;;17.11;91.25;100216.06;1686276;83;21088;-75
2022/07/09 06:03:05;;;;;;;3.33;3.12;;;;;;;17.15;90.63;100217.77;1713733;82;21048;-73
2022/07/09 06:05:31;;;;;;;3.77;3.42;;;;;;;17.17;90.78;100208.92;1715886;82;21185;-78
2022/07/09 06:07:57;;;;;;;2.83;2.55;;;;;;;17.16;91.29;100197.03;1713308;82;21048;-75
2022/07/09 06:10:24;;;;;;;2.92;2.75;;;;;;;17.15;91.45;100193.52;1713112;82;21145;-76
2022/07/09 06:12:52;;;;;;;2.60;2.50;;;;;;;17.12;91.85;100189.94;1672062;83;21317;-77
2022/07/09 06:15:18;;;;;;;5.03;3.00;;;;;;;17.13;91.51;100180.82;1656277;85;21544;-76
2022/07/09 06:17:45;;;;;;;3.35;3.15;;;;;;;17.16;92.02;100176.83;1671537;84;21072;-75
2022/07/09 06:20:11;;;;;;;2.47;2.37;;;;;;;17.13;91.57;100155.23;1668556;84;21565;-75
2022/07/09 06:22:38;;;;;;;;;;;;;;;17.08;90.84;100145.19;1701223;83;21033;-74
2022/07/09 06:25:06;;;;;;;2.90;2.70;;;;;;;17.06;91.55;100131.11;1694433;84;20115;-74
2022/07/09 06:27:35;;;;;;;3.12;2.33;;;;;;;16.97;92.27;100128.52;1683507;84;21041;-77
2022/07/09 06:30:02;;;;;;;2.83;2.62;;;;;;;16.95;92.67;100119.02;1697700;83;21605;-76
2022/07/09 06:32:29;;;;;;;3.02;2.40;;;;;;;16.96;91.95;100109.91;1675676;84;21055;-84
2022/07/09 06:34:56;;;;;;;2.22;2.12;;;;;;;16.99;91.89;100107.56;1665852;85;21042;-77
2022/07/09 06:37:22;;;;;;;3.27;2.27;;;;;;;17.07;92.05;100113.11;1686738;83;20990;-73
2022/07/09 06:39:50;;;;;;;3.12;2.92;;;;;;;17.08;91.10;100120.95;1693081;83;21519;-77
2022/07/09 06:42:18;;;;;;;3.22;2.75;;;;;;;17.13;91.54;100134.51;1658172;85;21124;-79
2022/07/09 06:44:46;;;;;;;2.92;2.83;;;;;;;17.19;89.59;100146.20;1687638;84;21070;-80
2022/07/09 06:47:13;;;;;;;2.15;2.08;;;;;;;17.27;89.15;100153.95;1630111;86;21045;-74
2022/07/09 06:49:39;;;;;;;2.17;2.08;;;;;;;17.34;89.13;100159.19;1641428;86;21100;-78
2022/07/09 06:52:07;;;;;;;1.62;1.52;;;;;;;17.48;89.40;100171.34;1665279;85;21023;-79
2022/07/09 06:54:35;;;;;;;2.12;1.85;;;;;;;17.48;89.40;100171.34;1658595;85;21044;-79
2022/07/09 06:57:03;;;;;;;3.83;1.10;;;;;;;17.49;88.72;100169.46;1671488;84;21041;-74
2022/07/09 06:59:30;;;;;;;1.40;1.30;;;;;;;17.48;88.83;100165.15;1663462;85;21508;-78
2022/07/09 07:01:56;;;;;;;2.60;2.35;;;;;;;17.45;89.14;100166.42;1680963;84;21065;-77
2022/07/09 07:04:22;;;;;;;1.98;1.87;;;;;;;17.43;89.68;100171.77;1678862;84;20978;-76
2022/07/09 07:06:49;;;;;;;2.57;1.47;;;;;;;17.39;89.95;100170.08;1673700;84;21100;-76
2022/07/09 07:09:20;;;;;;;4.78;1.57;;;;;;;17.47;90.16;100160.80;1668111;84;21577;-75
2022/07/09 07:11:49;;;;;;;2.42;1.90;;;;;;;17.59;90.07;100170.20;1678661;83;20998;-79
2022/07/09 07:14:16;;;;;;;1.70;1.60;;;;;;;17.63;89.48;100165.45;1681710;84;21089;-76
2022/07/09 07:16:44;;;;;;;1.37;1.27;;;;;;;17.63;89.64;100172.19;1679241;84;21006;-78
2022/07/09 07:19:11;;;;;;;1.25;1.00;;;;;;;17.56;88.90;100183.63;1679699;84;21021;-78
2022/07/09 07:21:38;;;;;;;2.35;1.25;;;;;;;17.52;88.67;100193.25;1678714;84;21056;-75
2022/07/09 07:24:06;;;;;;;2.42;1.30;;;;;;;17.45;89.75;100191.20;1672333;84;21485;-77
2022/07/09 07:26:33;;;;;;;2.50;1.87;;;;;;;17.40;90.86;100194.59;1680638;84;21513;-74
2022/07/09 07:28:59;;;;;;;2.70;2.50;;;;;;;17.38;90.81;100198.59;1679318;84;20990;-76
2022/07/09 07:31:32;;;;;;;2.05;1.95;;;;;;;17.38;91.65;100204.80;1681649;84;21485;-78
2022/07/09 07:34:00;;;;;;;2.45;1.50;;;;;;;17.41;91.76;100204.33;1647546;85;21046;-74
2022/07/09 07:36:27;;;;;;;;;;;;;;;17.45;91.80;100196.59;1663991;85;21770;-75
2022/07/09 07:38:53;;;;;;;3.62;2.05;;;;;;;17.49;91.87;100196.41;1659067;85;20146;-75
2022/07/09 07:41:21;;;;;;;1.70;1.60;;;;;;;17.42;90.70;100194.36;1634469;86;21053;-72
2022/07/09 07:43:47;;;;;;;3.40;1.77;;;;;;;17.41;92.07;100194.09;1667247;85;21106;-66
2022/07/09 07:46:14;;;;;;;4.35;2.00;;;;;;;17.45;91.33;100188.52;1631039;86;21086;-68
2022/07/09 07:48:43;;;;;;;3.37;2.27;;;;;;;17.43;91.97;100180.66;1658212;85;21021;-68
2022/07/09 07:51:11;;;;;;;2.10;2.00;;;;;;;17.40;92.24;100175.73;1631625;86;21075;-68
2022/07/09 07:53:38;;;;;;;1.85;1.75;;;;;;;17.34;92.89;100165.92;1629044;86;21037;-67
2022/07/09 07:56:06;;;;;;;2.30;2.12;;;;;;;17.28;92.43;100152.87;1659026;84;21655;-72
2022/07/09 07:58:33;;;;;;;5.30;1.80;;;;;;;17.27;92.61;100149.06;1629583;86;21184;-70
2022/07/09 08:01:00;;;;;;;2.50;2.33;;;;;;;17.28;92.08;100140.75;1659080;85;21002;-71
2022/07/09 08:03:26;;;;;;;2.00;1.90;;;;;;;17.32;91.92;100124.94;1661425;85;21046;-70
2022/07/09 08:05:52;;;;;;;2.50;2.40;;;;;;;17.40;92.83;100126.44;1660040;85;21140;-71
2022/07/09 08:08:18;;;;;;;5.78;5.28;;;;;;;17.40;91.75;100128.59;1658729;85;21049;-71
2022/07/09 08:10:48;;;;;;;2.87;2.67;;;;;;;17.41;91.48;100134.81;1660687;85;21166;-69
2022/07/09 08:13:17;;;;;;;3.10;2.00;;;;;;;17.37;91.66;100133.66;1659524;85;20978;-68
2022/07/09 08:15:45;;;;;;;5.30;2.52;;;;;;;17.39;91.89;100123.47;1659426;85;21072;-66
2022/07/09 08:18:13;;;;;;;2.98;1.92;;;;;;;17.42;92.34;100117.58;1658893;85;21057;-64
2022/07/09 08:20:41;;;;;;;1.67;1.57;;;;;;;17.43;92.53;100115.19;1659797;85;21085;-67
2022/07/09 08:23:08;;;;;;;2.52;1.95;;;;;;;17.47;90.84;100110.41;1642552;84;21032;-70
2022/07/09 08:25:35;;;;;;;3.12;1.95;;;;;;;17.56;90.42;100122.19;1674768;84;21057;-70
2022/07/09 08:28:02;;;;;;;;;;;;;;;17.60;89.86;100120.10;1672343;84;21561;-68
2022/07/09 08:30:29;;;;;;;1.92;1.82;;;;;;;17.59;90.37;100121.15;1687047;84;20137;-68
2022/07/09 08:32:55;;;;;;;1.95;1.85;;;;;;;17.59;90.37;100121.15;1651355;85;21065;-70
2022/07/09 08:35:21;;;;;;;2.00;1.82;;;;;;;17.59;90.32;100114.41;1660534;84;21066;-84
2022/07/09 08:37:48;;;;;;;1.00;1.00;;;;;;;17.64;89.27;100116.41;1660199;85;21037;-85
2022/07/09 08:40:14;;;;;;;1.45;1.45;;;;;;;17.65;90.25;100117.52;1670714;84;21053;-87
2022/07/09 08:42:41;;;;;;;2.72;1.50;;;;;;;17.64;90.51;100126.64;1652621;86;21522;-84
2022/07/09 08:45:16;;;;;;;2.17;1.90;;;;;;;17.63;90.51;100126.38;1664221;84;21526;-88
2022/07/09 08:47:42;;;;;;;2.27;1.55;;;;;;;17.66;89.91;100118.33;1665581;84;21016;-83
2022/07/09 08:50:10;;;;;;;2.30;1.35;;;;;;;17.71;89.72;100111.16;1674562;84;21052;-86
2022/07/09 08:52:41;;;;;;;2.22;2.12;;;;;;;17.74;89.72;100114.42;1664798;84;21039;-82
2022/07/09 08:55:09;;;;;;;2.33;1.52;;;;;;;17.75;90.24;100122.81;1718512;82;21113;-78
2022/07/09 08:57:35;;;;;;;2.17;1.75;;;;;;;17.73;90.29;100120.89;1735810;81;21037;-82
2022/07/09 09:00:03;;;;;;;1.47;1.42;;;;;;;17.73;89.89;100126.28;1738334;81;21036;-83
2022/07/09 09:02:36;;;;;;;1.37;1.27;;;;;;;17.74;90.61;100126.02;1735178;81;21087;-83
2022/07/09 09:05:13;;;;;;;2.05;1.95;;;;;;;17.73;91.41;100126.28;1732243;81;21426;-80
2022/07/09 09:07:39;;;;;;;1.52;1.42;;;;;;;17.71;91.02;100131.91;1733972;81;21037;-75
2022/07/09 09:10:06;;;;;;;2.05;1.67;;;;;;;17.77;91.18;100123.39;1733545;81;21309;-76
2022/07/09 09:12:34;;;;;;;2.22;2.12;;;;;;;17.86;91.60;100127.36;1730220;81;21098;-80
2022/07/09 09:15:06;;;;;;;3.35;2.52;;;;;;;17.89;91.58;100128.21;1723754;81;21145;-82
2022/07/09 09:17:33;;;;;;;2.42;2.22;;;;;;;17.91;92.19;100131.48;1736022;81;21053;-84
2022/07/09 09:20:00;;;;;;;;;;;;;;;17.98;92.24;100122.72;1735020;81;21037;-82
2022/07/09 09:22:27;;;;;;;1.87;1.77;;;;;;;18.08;92.00;100120.72;1731310;81;20169;-81
2022/07/09 09:24:53;;;;;;;3.47;1.80;;;;;;;18.11;91.50;100119.44;1705989;83;21525;-82
2022/07/09 09:27:30;;;;;;;2.25;1.57;;;;;;;18.14;90.75;100116.23;1705586;83;21089;-81
2022/07/09 09:30:00;;;;;;;2.10;1.67;;;;;;;18.13;89.49;100118.13;1703837;83;21115;-79
2022/07/09 09:32:26;;;;;;;3.30;1.75;;;;;;;18.07;90.00;100101.03;1706100;83;21025;-81
2022/07/09 09:34:53;;;;;;;1.52;1.00;;;;;;;18.03;90.02;100093.16;1706206;83;20993;-78
2022/07/09 09:37:27;;;;;;;;;;;;;;;18.04;90.15;100084.52;1708845;83;21072;-74
2022/07/09 09:39:53;;;;;;;2.20;1.77;;;;;;;18.05;89.91;100082.94;1703446;83;20142;-84
2022/07/09 09:42:20;;;;;;;2.27;2.12;;;;;;;18.03;91.01;100080.20;1704990;83;21065;-80
2022/07/09 09:44:49;;;;;;;2.52;2.33;;;;;;;18.02;90.94;100078.56;1710669;83;21063;-79
2022/07/09 09:47:22;;;;;;;2.70;1.90;;;;;;;18.04;92.11;100079.12;1732291;81;21651;-79
2022/07/09 09:49:49;;;;;;;1.55;1.42;;;;;;;18.04;92.08;100075.08;1732206;81;21027;-79
2022/07/09 09:52:20;;;;;;;2.75;1.17;;;;;;;18.05;92.80;100069.45;1729406;81;21129;-79
2022/07/09 09:54:49;;;;;;;1.17;1.05;;;;;;;18.11;91.62;100058.75;1701050;84;21061;-77
2022/07/09 09:57:17;;;;;;;1.32;1.22;;;;;;;18.18;90.03;100062.11;1717786;83;21593;-78
2022/07/09 09:59:47;;;;;;;;;;;;;;;18.26;91.02;100055.75;1724952;83;21053;-77
2022/07/09 10:02:15;;;;;;;1.47;0.95;;;;;;;18.32;91.54;100059.35;1695042;84;20147;-78
2022/07/09 10:04:44;;;;;;;1.32;1.10;;;;;;;18.33;90.92;100064.20;1694826;84;21181;-77
2022/07/09 10:07:13;;;;;;;1.17;1.07;;;;;;;18.40;91.08;100058.95;1666970;86;21138;-77
2022/07/09 10:09:41;;;;;;;3.65;1.15;;;;;;;18.57;89.80;100076.98;1695090;84;21506;-78
2022/07/09 10:12:09;;;;;;;3.02;1.20;;;;;;;18.61;88.58;100070.86;1695754;83;21173;-79
2022/07/09 10:14:37;;;;;;;1.17;0.80;;;;;;;18.61;88.96;100075.42;1692602;84;21529;-75
2022/07/09 10:17:14;;;;;;;1.32;1.22;;;;;;;18.59;88.74;100069.45;1695250;84;21098;-77
2022/07/09 10:20:04;;;;;;;1.72;1.70;;;;;;;18.57;88.74;100072.94;1663936;86;21414;-77
2022/07/09 10:22:39;;;;;;;5.80;1.55;;;;;;;18.57;88.60;100079.69;1697290;84;21128;-82
2022/07/09 10:25:08;;;;;;;1.40;0.93;;;;;;;18.58;88.42;100078.63;1681929;85;21164;-75
2022/07/09 10:27:46;;;;;;;2.85;1.17;;;;;;;18.60;87.46;100069.76;1681829;85;21044;-75
2022/07/09 10:30:32;;;;;;;1.45;1.35;;;;;;;18.62;87.40;100069.78;1680546;84;21172;-77
2022/07/09 10:33:07;;;;;;;4.35;1.17;;;;;;;18.65;87.28;100075.23;1679914;84;21144;-75
2022/07/09 10:35:49;;;;;;;4.67;1.35;;;;;;;18.71;87.49;100089.62;1679458;85;21092;-75
2022/07/09 10:38:19;;;;;;;1.15;1.05;;;;;;;18.75;87.21;100084.01;1678236;85;21165;-75
2022/07/09 10:40:49;;;;;;;1.67;1.55;;;;;;;18.72;87.17;100100.69;1681995;85;21002;-72
2022/07/09 10:43:17;;;;;;;1.52;1.42;;;;;;;18.68;87.06;100099.02;1678539;85;20983;-74
2022/07/09 10:45:45;;;;;;;0.95;0.93;;;;;;;18.62;87.08;100101.36;1681839;85;21017;-77
2022/07/09 10:48:15;;;;;;;1.30;1.20;;;;;;;18.60;87.95;100100.80;1680705;85;21200;-77
2022/07/09 10:50:50;;;;;;;1.07;1.00;;;;;;;18.57;87.48;100092.67;1679184;85;21509;-77
2022/07/09 10:53:14;;;;;;;2.12;1.42;;;;;;;18.54;87.91;100091.80;1676490;85;21544;-76
2022/07/09 10:55:47;;;;;;;0.90;0.90;;;;;;;18.56;88.39;100084.81;1677828;85;21104;-79
2022/07/09 10:58:22;;;;;;;1.50;1.40;;;;;;;18.55;88.92;100094.77;1677963;85;21166;-79
2022/07/09 11:00:56;;;;;;;4.30;1.35;;;;;;;18.58;89.20;100098.88;1660407;84;22144;-75
2022/07/09 11:03:29;;;;;;;1.65;1.20;;;;;;;18.61;88.45;100097.02;1695062;84;21459;-80
2022/07/09 11:05:57;;;;;;;1.27;1.27;;;;;;;18.60;87.66;100099.45;1693817;84;21176;-76
2022/07/09 11:08:24;;;;;;;1.15;1.15;;;;;;;18.63;87.62;100103.02;1698262;84;21076;-72
2022/07/09 11:10:51;;;;;;;2.17;1.22;;;;;;;18.62;87.33;100108.11;1690449;84;21134;-74
2022/07/09 11:13:28;;;;;;;2.98;1.75;;;;;;;18.64;87.12;100107.33;1697821;84;20982;-73
2022/07/09 11:16:01;;;;;;;1.15;1.07;;;;;;;18.64;86.82;100107.33;1691132;84;21024;-72
2022/07/09 11:18:29;;;;;;;1.37;1.20;;;;;;;18.66;86.65;100095.20;1694046;84;21010;-72
2022/07/09 11:20:55;;;;;;;0.80;0.80;;;;;;;18.34;85.90;100037.52;1698440;84;20994;-75
2022/07/09 11:23:21;;;;;;;1.42;1.10;;;;;;;18.63;85.16;100090.87;1679588;83;21039;-73
2022/07/09 11:25:47;;;;;;;7.70;1.25;;;;;;;18.60;85.90;100094.05;1686283;83;21094;-84
2022/07/09 11:28:22;;;;;;;1.37;1.27;;;;;;;18.62;85.79;100089.22;1682649;84;21590;-75
2022/07/09 11:31:00;;;;;;;1.47;1.37;;;;;;;18.70;86.53;100090.67;1683123;83;21078;-74
2022/07/09 11:33:27;;;;;;;2.33;1.07;;;;;;;18.82;85.54;100085.49;1675920;83;21008;-72
2022/07/09 11:35:53;;;;;;;1.20;1.10;;;;;;;18.93;85.69;100086.97;1682907;84;21168;-73